createdAt,value
2019-03-18T00:00:02.907Z,6.40
2019-03-18T00:02:32.230Z,6.30
2019-03-18T00:05:01.394Z,6.30
2019-03-18T00:07:30.528Z,6.30
2019-03-18T00:09:59.690Z,6.30
2019-03-18T00:12:28.858Z,6.30
2019-03-18T00:15:01.599Z,6.20
2019-03-18T00:17:28.923Z,6.20
2019-03-18T00:19:58.069Z,6.20
2019-03-18T00:22:27.391Z,6.20
2019-03-18T00:24:56.562Z,6.20
2019-03-18T00:27:25.723Z,6.10
2019-03-18T00:29:55.018Z,6.10
2019-03-18T00:32:24.144Z,6.20
2019-03-18T00:34:53.280Z,6.10
2019-03-18T00:37:22.452Z,6.10
2019-03-18T00:39:51.614Z,6.20
2019-03-18T00:42:20.774Z,6.20
2019-03-18T00:44:49.923Z,6.30
2019-03-18T00:47:19.071Z,6.40
2019-03-18T00:49:48.225Z,6.40
2019-03-18T00:52:17.712Z,6.40
2019-03-18T00:54:46.862Z,6.30
2019-03-18T00:57:16.112Z,6.20
2019-03-18T00:59:45.615Z,6.20
2019-03-18T01:02:14.879Z,6.20
2019-03-18T01:04:44.094Z,6.10
2019-03-18T01:07:13.284Z,6.10
2019-03-18T01:09:42.483Z,6.30
2019-03-18T01:12:11.690Z,6.20
2019-03-18T01:14:40.920Z,6.20
2019-03-18T01:17:10.174Z,6.10
2019-03-18T01:19:39.341Z,6.20
2019-03-18T01:22:08.510Z,6.00
2019-03-18T01:24:37.686Z,6.10
2019-03-18T01:27:06.866Z,6.10
2019-03-18T01:29:36.002Z,6.10
2019-03-18T01:32:05.193Z,6.00
2019-03-18T01:34:34.867Z,5.70
2019-03-18T01:37:04.079Z,5.80
2019-03-18T01:39:33.230Z,5.80
2019-03-18T01:42:02.691Z,5.90
2019-03-18T01:44:31.951Z,6.20
2019-03-18T01:47:01.185Z,6.10
2019-03-18T01:49:30.370Z,6.00
2019-03-18T01:51:59.610Z,6.00
2019-03-18T01:54:29.143Z,6.10
2019-03-18T01:56:58.371Z,6.10
2019-03-18T01:59:27.638Z,6.00
2019-03-18T02:01:57.206Z,6.10
2019-03-18T02:04:26.470Z,6.20
2019-03-18T02:06:55.680Z,6.30
2019-03-18T02:09:24.929Z,6.10
2019-03-18T02:11:54.071Z,6.20
2019-03-18T02:14:23.345Z,6.30
2019-03-18T02:16:52.481Z,6.20
2019-03-18T02:19:21.831Z,6.10
2019-03-18T02:21:50.978Z,6.00
2019-03-18T02:24:20.121Z,6.00
2019-03-18T02:26:49.310Z,6.10
2019-03-18T02:29:18.522Z,6.20
2019-03-18T02:31:47.714Z,6.00
2019-03-18T02:34:16.874Z,6.00
2019-03-18T02:36:46.052Z,6.00
2019-03-18T02:39:15.291Z,5.80
2019-03-18T02:41:44.453Z,5.80
2019-03-18T02:44:15.508Z,5.80
2019-03-18T02:46:44.825Z,5.60
2019-03-18T02:49:14.128Z,5.40
2019-03-18T02:51:43.320Z,5.40
2019-03-18T02:54:12.551Z,5.40
2019-03-18T02:56:41.688Z,5.70
2019-03-18T02:59:10.835Z,5.80
2019-03-18T03:01:40.003Z,5.60
2019-03-18T03:04:09.266Z,5.70
2019-03-18T03:06:38.477Z,5.70
2019-03-18T03:09:08.384Z,5.70
2019-03-18T03:11:37.507Z,5.60
2019-03-18T03:14:06.989Z,5.50
2019-03-18T03:16:36.176Z,5.30
2019-03-18T03:19:05.342Z,5.20
2019-03-18T03:21:34.889Z,5.10
2019-03-18T03:24:04.038Z,5.20
2019-03-18T03:26:33.164Z,5.10
2019-03-18T03:29:02.353Z,5.20
2019-03-18T03:31:31.497Z,5.40
2019-03-18T03:34:00.832Z,5.50
2019-03-18T03:36:29.997Z,5.70
2019-03-18T03:38:59.239Z,5.60
2019-03-18T03:41:28.570Z,5.50
2019-03-18T03:43:57.832Z,5.60
2019-03-18T03:46:41.970Z,5.50
2019-03-18T03:48:57.867Z,5.40
2019-03-18T03:51:27.113Z,5.40
2019-03-18T03:53:56.302Z,5.40
2019-03-18T03:56:26.101Z,5.40
2019-03-18T03:58:55.518Z,5.30
2019-03-18T04:01:24.763Z,5.30
2019-03-18T04:03:53.935Z,5.40
2019-03-18T04:06:23.381Z,5.40
2019-03-18T04:08:52.910Z,5.60
2019-03-18T04:11:22.147Z,5.50
2019-03-18T04:13:51.280Z,5.50
2019-03-18T04:16:20.533Z,5.50
2019-03-18T04:18:49.704Z,5.40
2019-03-18T04:21:18.860Z,5.30
2019-03-18T04:23:48.106Z,5.30
2019-03-18T04:26:19.349Z,5.40
2019-03-18T04:28:48.535Z,5.50
2019-03-18T04:31:17.720Z,5.70
2019-03-18T04:33:46.876Z,5.50
2019-03-18T04:36:16.488Z,5.50
2019-03-18T04:38:45.818Z,5.50
2019-03-18T04:41:15.117Z,5.60
2019-03-18T04:43:44.398Z,5.60
2019-03-18T04:46:13.571Z,5.60
2019-03-18T04:48:42.854Z,5.60
2019-03-18T04:51:11.990Z,5.60
2019-03-18T04:53:41.258Z,5.70
2019-03-18T04:56:10.489Z,5.90
2019-03-18T04:58:39.718Z,5.90
2019-03-18T05:01:09.243Z,5.90
2019-03-18T05:03:38.394Z,6.00
2019-03-18T05:06:07.644Z,6.00
2019-03-18T05:08:36.791Z,5.90
2019-03-18T05:11:06.112Z,5.80
2019-03-18T05:13:35.469Z,5.80
2019-03-18T05:16:04.658Z,5.80
2019-03-18T05:18:36.522Z,5.80
2019-03-18T05:21:04.851Z,5.90
2019-03-18T05:23:34.003Z,5.90
2019-03-18T05:26:03.464Z,6.00
2019-03-18T05:28:32.610Z,6.00
2019-03-18T05:31:01.772Z,6.00
2019-03-18T05:33:30.951Z,5.90
2019-03-18T05:36:00.119Z,6.10
2019-03-18T05:38:29.309Z,6.10
2019-03-18T05:40:58.467Z,6.00
2019-03-18T05:43:27.612Z,5.90
2019-03-18T05:45:56.799Z,5.90
2019-03-18T05:48:25.938Z,5.90
2019-03-18T05:50:55.182Z,5.80
2019-03-18T05:53:24.445Z,5.80
2019-03-18T05:55:53.616Z,5.90
2019-03-18T05:58:22.784Z,6.10
2019-03-18T06:00:52.018Z,6.00
2019-03-18T06:03:21.255Z,5.90
2019-03-18T06:05:50.403Z,5.90
2019-03-18T06:08:19.594Z,5.90
2019-03-18T06:10:48.754Z,6.00
2019-03-18T06:13:17.970Z,5.80
2019-03-18T06:15:47.251Z,5.80
2019-03-18T06:18:16.406Z,5.90
2019-03-18T06:20:45.556Z,5.90
2019-03-18T06:23:14.709Z,6.00
2019-03-18T06:25:43.923Z,6.00
2019-03-18T06:28:17.840Z,6.10
2019-03-18T06:30:46.982Z,6.10
2019-03-18T06:33:16.158Z,6.20
2019-03-18T06:35:45.378Z,6.30
2019-03-18T06:38:14.622Z,6.40
2019-03-18T06:40:43.919Z,6.40
2019-03-18T06:43:13.156Z,6.30
2019-03-18T06:45:42.597Z,6.40
2019-03-18T06:48:11.815Z,6.40
2019-03-18T06:50:41.435Z,6.40
2019-03-18T06:53:10.579Z,6.50
2019-03-18T06:55:39.826Z,6.60
2019-03-18T06:58:09.379Z,6.60
2019-03-18T07:00:38.664Z,6.70
2019-03-18T07:03:07.848Z,6.80
2019-03-18T07:05:37.395Z,6.90
2019-03-18T07:08:06.612Z,6.70
2019-03-18T07:10:35.846Z,6.60
2019-03-18T07:13:05.082Z,6.70
2019-03-18T07:15:34.306Z,6.80
2019-03-18T07:18:03.565Z,6.60
2019-03-18T07:20:32.791Z,6.80
2019-03-18T07:23:02.032Z,6.80
2019-03-18T07:25:31.214Z,6.60
2019-03-18T07:28:00.411Z,6.70
2019-03-18T07:30:29.873Z,6.80
2019-03-18T07:32:59.151Z,6.70
2019-03-18T07:35:28.343Z,6.90
2019-03-18T07:37:57.554Z,6.80
2019-03-18T07:40:26.724Z,6.70
2019-03-18T07:42:56.050Z,6.90
2019-03-18T07:45:25.324Z,6.80
2019-03-18T07:47:54.499Z,6.90
2019-03-18T07:50:23.666Z,6.80
2019-03-18T07:52:52.894Z,6.90
2019-03-18T07:55:22.090Z,6.80
2019-03-18T07:57:51.269Z,6.80
2019-03-18T08:00:20.580Z,6.80
2019-03-18T08:02:49.839Z,6.70
2019-03-18T08:05:19.118Z,6.60
2019-03-18T08:07:48.390Z,6.70
2019-03-18T08:10:17.522Z,6.80
2019-03-18T08:12:46.744Z,6.80
2019-03-18T08:15:15.914Z,6.90
2019-03-18T08:17:45.136Z,6.80
2019-03-18T08:20:14.459Z,6.80
2019-03-18T08:22:43.659Z,6.90
2019-03-18T08:25:12.984Z,6.90
2019-03-18T08:27:42.155Z,7.10
2019-03-18T08:30:13.647Z,7.20
2019-03-18T08:32:42.875Z,7.30
2019-03-18T08:35:12.055Z,7.20
2019-03-18T08:37:41.607Z,7.40
2019-03-18T08:40:11.020Z,7.70
2019-03-18T08:42:40.260Z,7.60
2019-03-18T08:45:09.462Z,7.60
2019-03-18T08:47:38.636Z,7.60
2019-03-18T08:50:07.855Z,7.40
2019-03-18T08:52:37.112Z,7.50
2019-03-18T08:55:06.654Z,7.50
2019-03-18T08:57:35.888Z,7.30
2019-03-18T09:00:06.030Z,7.30
2019-03-18T09:02:35.398Z,7.50
2019-03-18T09:05:04.822Z,7.30
2019-03-18T09:07:34.012Z,7.20
2019-03-18T09:10:03.237Z,7.20
2019-03-18T09:12:32.403Z,7.20
2019-03-18T09:15:01.961Z,7.20
2019-03-18T09:17:31.188Z,7.40
2019-03-18T09:20:00.388Z,7.40
2019-03-18T09:22:29.748Z,7.40
2019-03-18T09:24:58.969Z,7.60
2019-03-18T09:27:28.127Z,7.60
2019-03-18T09:29:57.466Z,7.70
2019-03-18T09:32:26.718Z,7.70
2019-03-18T09:34:55.978Z,7.70
2019-03-18T09:37:25.322Z,7.80
2019-03-18T09:39:54.599Z,7.70
2019-03-18T09:42:23.815Z,7.70
2019-03-18T09:44:53.050Z,7.80
2019-03-18T09:47:22.215Z,7.90
2019-03-18T09:49:51.472Z,8.10
2019-03-18T09:52:20.679Z,7.70
2019-03-18T09:54:49.874Z,7.70
2019-03-18T09:57:25.868Z,7.80
2019-03-18T09:59:50.046Z,7.90
2019-03-18T10:02:19.459Z,7.80
2019-03-18T10:04:48.651Z,7.70
2019-03-18T10:07:17.883Z,7.70
2019-03-18T10:09:47.058Z,7.70
2019-03-18T10:12:16.296Z,7.60
2019-03-18T10:14:45.454Z,7.60
2019-03-18T10:17:14.787Z,7.60
2019-03-18T10:19:44.076Z,7.70
2019-03-18T10:22:13.303Z,7.70
2019-03-18T10:24:42.468Z,7.80
2019-03-18T10:27:11.795Z,7.80
2019-03-18T10:29:40.931Z,7.70
2019-03-18T10:32:10.155Z,7.60
2019-03-18T10:34:39.367Z,7.80
2019-03-18T10:37:08.859Z,7.80
2019-03-18T10:39:38.115Z,7.60
2019-03-18T10:42:07.495Z,7.70
2019-03-18T10:44:36.798Z,7.90
2019-03-18T10:47:06.051Z,8.10
2019-03-18T10:49:45.471Z,8.30
2019-03-18T10:52:06.185Z,8.30
2019-03-18T10:54:35.479Z,8.30
2019-03-18T10:57:04.736Z,8.40
2019-03-18T10:59:33.902Z,8.30
2019-03-18T11:02:03.112Z,8.20
2019-03-18T11:04:32.286Z,8.50
2019-03-18T11:07:01.505Z,8.60
2019-03-18T11:09:30.728Z,8.50
2019-03-18T11:12:00.184Z,8.30
2019-03-18T11:14:29.379Z,8.20
2019-03-18T11:16:58.536Z,8.00
2019-03-18T11:19:27.928Z,8.00
2019-03-18T11:21:57.101Z,8.00
2019-03-18T11:24:26.351Z,7.90
2019-03-18T11:26:55.587Z,7.80
2019-03-18T11:29:24.899Z,7.80
2019-03-18T11:31:54.063Z,7.80
2019-03-18T11:34:24.215Z,7.80
2019-03-18T11:36:53.606Z,7.80
2019-03-18T11:39:22.757Z,7.90
2019-03-18T11:41:51.942Z,8.10
2019-03-18T11:44:21.127Z,8.40
2019-03-18T11:46:50.379Z,8.60
2019-03-18T11:49:19.563Z,8.70
2019-03-18T11:51:48.915Z,8.70
2019-03-18T11:54:18.207Z,8.70
2019-03-18T11:56:47.513Z,8.70
2019-03-18T11:59:16.691Z,8.80
2019-03-18T12:01:45.928Z,8.80
2019-03-18T12:04:15.183Z,8.70
2019-03-18T12:06:44.345Z,8.90
2019-03-18T12:09:13.560Z,8.90
2019-03-18T12:11:42.833Z,8.90
2019-03-18T12:14:12.077Z,8.90
2019-03-18T12:16:41.390Z,8.90
2019-03-18T12:19:10.654Z,9.10
2019-03-18T12:21:39.879Z,9.30
2019-03-18T12:24:09.044Z,9.50
2019-03-18T12:26:38.410Z,9.50
2019-03-18T12:29:07.586Z,9.60
2019-03-18T12:31:36.764Z,9.70
2019-03-18T12:34:05.988Z,9.70
2019-03-18T12:36:35.220Z,9.60
2019-03-18T12:39:05.632Z,9.60
2019-03-18T12:41:34.785Z,9.30
2019-03-18T12:44:04.051Z,9.10
2019-03-18T12:46:33.304Z,8.90
2019-03-18T12:49:02.580Z,8.80
2019-03-18T12:51:31.842Z,8.30
2019-03-18T12:54:01.074Z,8.10
2019-03-18T12:56:30.315Z,8.20
2019-03-18T12:58:59.495Z,8.20
2019-03-18T13:01:29.940Z,8.30
2019-03-18T13:03:59.459Z,8.50
2019-03-18T13:06:28.682Z,8.70
2019-03-18T13:08:57.905Z,8.70
2019-03-18T13:11:27.190Z,8.50
2019-03-18T13:13:56.363Z,8.50
2019-03-18T13:16:25.502Z,8.40
2019-03-18T13:18:54.799Z,8.40
2019-03-18T13:21:23.961Z,8.50
2019-03-18T13:23:53.227Z,8.50
2019-03-18T13:26:22.472Z,8.60
2019-03-18T13:28:51.786Z,8.70
2019-03-18T13:31:21.057Z,8.60
2019-03-18T13:33:50.277Z,8.80
2019-03-18T13:36:19.451Z,9.10
2019-03-18T13:38:49.046Z,9.30
2019-03-18T13:41:18.223Z,9.40
2019-03-18T13:43:47.487Z,9.50
2019-03-18T13:46:18.603Z,9.40
2019-03-18T13:48:47.718Z,9.40
2019-03-18T13:51:21.189Z,9.20
2019-03-18T13:53:47.778Z,9.00
2019-03-18T13:56:17.052Z,8.60
2019-03-18T13:58:46.284Z,8.20
2019-03-18T14:01:15.527Z,7.30
2019-03-18T14:03:45.036Z,7.00
2019-03-18T14:06:14.293Z,7.10
2019-03-18T14:08:43.576Z,7.20
2019-03-18T14:11:12.818Z,7.30
2019-03-18T14:13:42.075Z,7.40
2019-03-18T14:16:11.323Z,7.40
2019-03-18T14:18:40.463Z,7.50
2019-03-18T14:21:11.334Z,7.50
2019-03-18T14:23:40.531Z,7.50
2019-03-18T14:26:09.746Z,7.50
2019-03-18T14:28:39.351Z,7.70
2019-03-18T14:31:08.615Z,7.90
2019-03-18T14:33:37.834Z,8.00
2019-03-18T14:36:07.030Z,8.00
2019-03-18T14:38:38.297Z,8.10
2019-03-18T14:41:07.228Z,8.20
2019-03-18T14:43:36.531Z,8.30
2019-03-18T14:46:05.730Z,8.40
2019-03-18T14:48:34.928Z,8.40
2019-03-18T14:51:04.219Z,8.30
2019-03-18T14:53:33.440Z,8.30
2019-03-18T14:56:02.708Z,8.20
2019-03-18T14:58:31.996Z,8.30
2019-03-18T15:01:01.178Z,8.30
2019-03-18T15:03:30.463Z,8.40
2019-03-18T15:05:59.714Z,8.30
2019-03-18T15:08:28.880Z,8.20
2019-03-18T15:10:58.099Z,8.30
2019-03-18T15:13:31.164Z,8.30
2019-03-18T15:15:58.357Z,8.30
2019-03-18T15:18:28.009Z,8.30
2019-03-18T15:20:57.150Z,8.30
2019-03-18T15:23:26.384Z,8.40
2019-03-18T15:25:55.682Z,8.40
2019-03-18T15:28:24.920Z,8.50
2019-03-18T15:30:54.083Z,8.50
2019-03-18T15:33:23.231Z,8.40
2019-03-18T15:35:52.794Z,8.50
2019-03-18T15:38:22.023Z,8.60
2019-03-18T15:40:51.183Z,8.40
2019-03-18T15:43:20.434Z,8.30
2019-03-18T15:45:49.620Z,8.30
2019-03-18T15:48:18.775Z,8.30
2019-03-18T15:50:48.003Z,8.30
2019-03-18T15:53:17.164Z,8.20
2019-03-18T15:55:46.342Z,8.20
2019-03-18T15:58:15.511Z,8.20
2019-03-18T16:00:44.814Z,8.10
2019-03-18T16:03:14.044Z,8.10
2019-03-18T16:05:43.255Z,8.10
2019-03-18T16:08:12.553Z,7.80
2019-03-18T16:10:42.098Z,7.60
2019-03-18T16:13:11.524Z,7.60
2019-03-18T16:15:41.063Z,7.50
2019-03-18T16:18:10.254Z,7.40
2019-03-18T16:20:39.411Z,7.40
2019-03-18T16:23:10.071Z,7.30
2019-03-18T16:25:39.232Z,7.30
2019-03-18T16:28:08.514Z,7.30
2019-03-18T16:30:37.719Z,7.30
2019-03-18T16:33:06.922Z,7.40
2019-03-18T16:35:36.204Z,7.30
2019-03-18T16:38:05.436Z,7.20
2019-03-18T16:40:34.595Z,7.20
2019-03-18T16:43:03.767Z,7.20
2019-03-18T16:45:33.020Z,7.10
2019-03-18T16:48:02.154Z,7.20
2019-03-18T16:50:31.403Z,7.10
2019-03-18T16:53:00.562Z,7.10
2019-03-18T16:55:29.855Z,7.20
2019-03-18T16:57:59.050Z,7.20
2019-03-18T17:00:28.594Z,7.20
2019-03-18T17:02:57.815Z,7.10
2019-03-18T17:05:27.044Z,7.10
2019-03-18T17:07:56.327Z,7.10
2019-03-18T17:10:25.459Z,7.10
2019-03-18T17:12:54.664Z,7.10
2019-03-18T17:15:23.890Z,7.10
2019-03-18T17:17:53.103Z,7.10
2019-03-18T17:20:22.267Z,7.10
2019-03-18T17:22:51.516Z,7.30
2019-03-18T17:25:20.697Z,7.30
2019-03-18T17:27:49.854Z,7.10
2019-03-18T17:30:19.088Z,7.00
2019-03-18T17:32:48.331Z,6.90
2019-03-18T17:35:17.539Z,6.60
2019-03-18T17:37:46.737Z,6.60
2019-03-18T17:40:16.026Z,6.40
2019-03-18T17:42:45.299Z,6.20
2019-03-18T17:45:14.558Z,6.20
2019-03-18T17:47:43.878Z,6.20
2019-03-18T17:50:15.514Z,6.20
2019-03-18T17:52:44.780Z,6.20
2019-03-18T17:55:13.987Z,6.20
2019-03-18T17:57:43.145Z,6.20
2019-03-18T18:00:16.610Z,6.20
2019-03-18T18:02:46.078Z,6.30
2019-03-18T18:05:15.266Z,6.30
2019-03-18T18:07:44.489Z,6.30
2019-03-18T18:10:34.274Z,6.30
2019-03-18T18:13:03.499Z,6.40
2019-03-18T18:15:32.640Z,6.50
2019-03-18T18:18:01.901Z,6.50
2019-03-18T18:20:31.138Z,6.60
2019-03-18T18:23:00.313Z,6.60
2019-03-18T18:25:29.550Z,6.60
2019-03-18T18:27:58.695Z,6.60
2019-03-18T18:30:27.922Z,6.60
2019-03-18T18:32:57.163Z,6.60
2019-03-18T18:35:26.318Z,6.50
2019-03-18T18:37:55.535Z,6.50
2019-03-18T18:40:24.722Z,6.60
2019-03-18T18:42:54.042Z,6.50
2019-03-18T18:45:23.212Z,6.50
2019-03-18T18:47:52.436Z,6.50
2019-03-18T18:50:21.995Z,6.50
2019-03-18T18:52:51.149Z,6.50
2019-03-18T18:55:20.327Z,6.50
2019-03-18T18:57:49.463Z,6.50
2019-03-18T19:00:18.873Z,6.50
2019-03-18T19:02:48.460Z,6.60
2019-03-18T19:05:17.697Z,6.50
2019-03-18T19:07:47.345Z,6.50
2019-03-18T19:10:16.615Z,6.60
2019-03-18T19:12:45.843Z,6.50
2019-03-18T19:15:17.589Z,6.50
2019-03-18T19:17:46.770Z,6.50
2019-03-18T19:20:16.157Z,6.50
2019-03-18T19:22:45.372Z,6.50
2019-03-18T19:25:14.758Z,6.40
2019-03-18T19:27:43.990Z,6.40
2019-03-18T19:30:18.067Z,6.40
2019-03-18T19:32:47.202Z,6.40
2019-03-18T19:35:16.416Z,6.40
2019-03-18T19:37:45.718Z,6.30
2019-03-18T19:40:14.962Z,6.30
2019-03-18T19:42:44.175Z,6.30
2019-03-18T19:45:13.993Z,6.20
2019-03-18T19:47:43.262Z,6.10
2019-03-18T19:50:14.901Z,6.20
2019-03-18T19:52:44.067Z,6.10
2019-03-18T19:55:13.343Z,6.10
2019-03-18T19:57:42.914Z,6.00
2019-03-18T20:00:14.683Z,6.00
2019-03-18T20:02:43.923Z,6.00
2019-03-18T20:05:15.692Z,6.10
2019-03-18T20:07:44.175Z,6.00
2019-03-18T20:10:13.773Z,6.00
2019-03-18T20:12:43.265Z,6.00
2019-03-18T20:15:13.195Z,6.00
2019-03-18T20:17:42.349Z,5.90
2019-03-18T20:20:12.838Z,6.00
2019-03-18T20:22:42.149Z,5.90
2019-03-18T20:25:11.375Z,5.80
2019-03-18T20:27:40.764Z,5.80
2019-03-18T20:30:12.435Z,5.80
2019-03-18T20:32:41.677Z,5.80
2019-03-18T20:35:11.920Z,5.70
2019-03-18T20:37:41.120Z,5.70
2019-03-18T20:40:11.684Z,5.70
2019-03-18T20:42:40.960Z,5.60
2019-03-18T20:45:12.031Z,5.60
2019-03-18T20:47:41.202Z,5.60
2019-03-18T20:50:11.980Z,5.60
2019-03-18T20:52:41.160Z,5.60
2019-03-18T20:55:11.022Z,5.60
2019-03-18T20:57:40.295Z,5.60
2019-03-18T21:00:10.598Z,5.60
2019-03-18T21:02:39.846Z,5.70
2019-03-18T21:05:09.415Z,5.80
2019-03-18T21:07:38.655Z,5.80
2019-03-18T21:10:08.527Z,5.70
2019-03-18T21:12:37.691Z,5.60
2019-03-18T21:15:07.546Z,5.50
2019-03-18T21:17:37.459Z,5.50
2019-03-18T21:20:08.867Z,5.60
2019-03-18T21:22:38.035Z,5.60
2019-03-18T21:25:07.275Z,5.50
2019-03-18T21:27:36.452Z,5.50
2019-03-18T21:30:07.027Z,5.50
2019-03-18T21:32:36.327Z,5.40
2019-03-18T21:35:05.723Z,5.50
2019-03-18T21:37:35.026Z,5.40
2019-03-18T21:40:05.439Z,5.50
2019-03-18T21:42:34.689Z,5.40
2019-03-18T21:45:04.207Z,5.40
2019-03-18T21:47:33.491Z,5.40
2019-03-18T21:50:02.754Z,5.40
2019-03-18T21:52:32.037Z,5.40
2019-03-18T21:55:01.329Z,5.40
2019-03-18T21:57:30.487Z,5.50
2019-03-18T21:59:59.626Z,5.60
2019-03-18T22:02:28.830Z,5.60
2019-03-18T22:04:58.057Z,5.50
2019-03-18T22:07:27.194Z,5.40
2019-03-18T22:09:56.737Z,5.40
2019-03-18T22:12:25.884Z,5.30
2019-03-18T22:14:55.093Z,5.40
2019-03-18T22:17:24.301Z,5.40
2019-03-18T22:19:53.514Z,5.60
2019-03-18T22:22:22.821Z,5.50
2019-03-18T22:24:52.399Z,5.50
2019-03-18T22:27:21.938Z,5.60
2019-03-18T22:29:51.084Z,5.50
2019-03-18T22:32:20.258Z,5.60
2019-03-18T22:34:49.419Z,5.50
2019-03-18T22:37:18.571Z,5.50
2019-03-18T22:39:47.816Z,5.40
2019-03-18T22:42:16.998Z,5.50
2019-03-18T22:44:46.226Z,5.50
2019-03-18T22:47:15.386Z,5.40
2019-03-18T22:49:44.603Z,5.30
2019-03-18T22:52:13.772Z,5.40
2019-03-18T22:54:43.023Z,5.30
2019-03-18T22:57:12.201Z,5.40
2019-03-18T22:59:41.362Z,5.50
2019-03-18T23:02:10.747Z,5.50
2019-03-18T23:04:39.898Z,5.50
2019-03-18T23:07:09.106Z,5.40
2019-03-18T23:09:38.286Z,5.40
2019-03-18T23:12:07.435Z,5.40
2019-03-18T23:14:36.706Z,5.40
2019-03-18T23:17:05.915Z,5.50
2019-03-18T23:19:35.087Z,5.50
2019-03-18T23:22:04.711Z,5.40
2019-03-18T23:24:33.982Z,5.40
2019-03-18T23:27:03.206Z,5.40
2019-03-18T23:29:32.410Z,5.40
2019-03-18T23:32:01.651Z,5.40
2019-03-18T23:34:30.812Z,5.40
2019-03-18T23:37:00.076Z,5.40
2019-03-18T23:39:29.314Z,5.40
2019-03-18T23:41:58.531Z,5.50
2019-03-18T23:44:28.497Z,5.50
2019-03-18T23:46:57.892Z,5.50
2019-03-18T23:49:27.150Z,5.50
2019-03-18T23:51:56.409Z,5.40
2019-03-18T23:54:25.555Z,5.50
2019-03-18T23:56:54.777Z,5.40
2019-03-18T23:59:24.968Z,5.40
